sensor_id;sensor_type;location;lat;lon;timestamp;temperature;humidity
52709;DHT22;38606;52.986;6.980;2023-05-23T00:01:32;14.90;99.90
52709;DHT22;38606;52.986;6.980;2023-05-23T00:04:02;15.20;99.90
52709;DHT22;38606;52.986;6.980;2023-05-23T00:06:28;15.20;99.90
52709;DHT22;38606;52.986;6.980;2023-05-23T00:08:53;15.10;99.90
52709;DHT22;38606;52.986;6.980;2023-05-23T00:11:19;15.10;99.90
52709;DHT22;38606;52.986;6.980;2023-05-23T00:13:48;15.10;99.90
52709;DHT22;38606;52.986;6.980;2023-05-23T00:16:15;15.10;99.90
52709;DHT22;38606;52.986;6.980;2023-05-23T00:18:41;15.10;99.90
52709;DHT22;38606;52.986;6.980;2023-05-23T00:21:07;14.80;99.90
52709;DHT22;38606;52.986;6.980;2023-05-23T00:23:34;14.90;99.90
52709;DHT22;38606;52.986;6.980;2023-05-23T00:26:00;14.70;99.90
52709;DHT22;38606;52.986;6.980;2023-05-23T00:28:25;14.80;99.90
52709;DHT22;38606;52.986;6.980;2023-05-23T00:30:51;14.80;99.90
52709;DHT22;38606;52.986;6.980;2023-05-23T00:33:17;14.80;99.90
52709;DHT22;38606;52.986;6.980;2023-05-23T00:35:46;14.70;99.90
52709;DHT22;38606;52.986;6.980;2023-05-23T00:38:13;14.80;99.90
52709;DHT22;38606;52.986;6.980;2023-05-23T00:40:39;14.80;99.90
52709;DHT22;38606;52.986;6.980;2023-05-23T00:43:05;14.70;99.90
52709;DHT22;38606;52.986;6.980;2023-05-23T00:45:32;14.80;99.90
52709;DHT22;38606;52.986;6.980;2023-05-23T00:47:58;15.00;99.90
52709;DHT22;38606;52.986;6.980;2023-05-23T00:50:26;14.60;99.90
52709;DHT22;38606;52.986;6.980;2023-05-23T00:52:55;14.60;99.90
52709;DHT22;38606;52.986;6.980;2023-05-23T00:55:22;14.60;99.90
52709;DHT22;38606;52.986;6.980;2023-05-23T00:57:49;14.60;99.90
52709;DHT22;38606;52.986;6.980;2023-05-23T01:00:16;14.70;99.90
52709;DHT22;38606;52.986;6.980;2023-05-23T01:02:45;14.70;99.90
52709;DHT22;38606;52.986;6.980;2023-05-23T01:05:13;14.70;99.90
52709;DHT22;38606;52.986;6.980;2023-05-23T01:07:45;14.70;99.90
52709;DHT22;38606;52.986;6.980;2023-05-23T01:10:13;14.70;99.90
52709;DHT22;38606;52.986;6.980;2023-05-23T01:15:19;14.60;99.90
52709;DHT22;38606;52.986;6.980;2023-05-23T01:18:09;14.60;99.90
52709;DHT22;38606;52.986;6.980;2023-05-23T01:20:49;13.90;99.90
52709;DHT22;38606;52.986;6.980;2023-05-23T01:28:54;14.50;99.90
52709;DHT22;38606;52.986;6.980;2023-05-23T01:31:23;14.50;99.90
52709;DHT22;38606;52.986;6.980;2023-05-23T01:33:52;14.60;99.90
52709;DHT22;38606;52.986;6.980;2023-05-23T01:36:18;14.60;99.90
52709;DHT22;38606;52.986;6.980;2023-05-23T01:38:44;14.50;99.90
52709;DHT22;38606;52.986;6.980;2023-05-23T01:41:10;14.70;99.90
52709;DHT22;38606;52.986;6.980;2023-05-23T01:43:36;14.50;99.90
52709;DHT22;38606;52.986;6.980;2023-05-23T01:46:03;14.60;99.90
52709;DHT22;38606;52.986;6.980;2023-05-23T01:48:30;13.60;99.90
52709;DHT22;38606;52.986;6.980;2023-05-23T01:50:56;14.60;99.90
52709;DHT22;38606;52.986;6.980;2023-05-23T01:53:22;14.40;99.90
52709;DHT22;38606;52.986;6.980;2023-05-23T01:55:49;14.60;99.90
52709;DHT22;38606;52.986;6.980;2023-05-23T01:58:15;14.40;99.90
52709;DHT22;38606;52.986;6.980;2023-05-23T02:00:41;14.40;99.90
52709;DHT22;38606;52.986;6.980;2023-05-23T02:03:07;14.20;99.90
52709;DHT22;38606;52.986;6.980;2023-05-23T02:05:33;14.40;99.90
52709;DHT22;38606;52.986;6.980;2023-05-23T02:07:59;14.60;99.90
52709;DHT22;38606;52.986;6.980;2023-05-23T02:10:25;14.50;99.90
52709;DHT22;38606;52.986;6.980;2023-05-23T02:12:51;14.40;99.90
52709;DHT22;38606;52.986;6.980;2023-05-23T02:15:16;14.30;99.90
52709;DHT22;38606;52.986;6.980;2023-05-23T02:17:42;14.40;99.90
52709;DHT22;38606;52.986;6.980;2023-05-23T02:20:08;14.20;99.90
52709;DHT22;38606;52.986;6.980;2023-05-23T02:22:37;14.30;99.90
52709;DHT22;38606;52.986;6.980;2023-05-23T02:25:03;14.10;99.90
52709;DHT22;38606;52.986;6.980;2023-05-23T02:27:29;14.10;99.90
52709;DHT22;38606;52.986;6.980;2023-05-23T02:29:55;14.10;99.90
52709;DHT22;38606;52.986;6.980;2023-05-23T02:32:21;14.00;99.90
52709;DHT22;38606;52.986;6.980;2023-05-23T02:34:47;14.10;99.90
52709;DHT22;38606;52.986;6.980;2023-05-23T02:37:15;14.00;99.90
52709;DHT22;38606;52.986;6.980;2023-05-23T02:39:42;14.20;99.90
52709;DHT22;38606;52.986;6.980;2023-05-23T02:42:08;14.00;99.90
52709;DHT22;38606;52.986;6.980;2023-05-23T02:44:34;14.30;99.90
52709;DHT22;38606;52.986;6.980;2023-05-23T02:47:00;14.00;99.90
52709;DHT22;38606;52.986;6.980;2023-05-23T02:49:25;14.20;99.90
52709;DHT22;38606;52.986;6.980;2023-05-23T02:51:51;13.80;99.90
52709;DHT22;38606;52.986;6.980;2023-05-23T02:54:17;13.90;99.90
52709;DHT22;38606;52.986;6.980;2023-05-23T02:56:44;13.70;99.90
52709;DHT22;38606;52.986;6.980;2023-05-23T02:59:10;13.80;99.90
52709;DHT22;38606;52.986;6.980;2023-05-23T03:01:36;13.90;99.90
52709;DHT22;38606;52.986;6.980;2023-05-23T03:04:02;14.00;99.90
52709;DHT22;38606;52.986;6.980;2023-05-23T03:06:28;13.80;99.90
52709;DHT22;38606;52.986;6.980;2023-05-23T03:08:56;13.50;99.90
52709;DHT22;38606;52.986;6.980;2023-05-23T03:11:22;13.90;99.90
52709;DHT22;38606;52.986;6.980;2023-05-23T03:13:48;13.50;99.90
52709;DHT22;38606;52.986;6.980;2023-05-23T03:16:13;13.70;99.90
52709;DHT22;38606;52.986;6.980;2023-05-23T03:18:39;13.80;99.90
52709;DHT22;38606;52.986;6.980;2023-05-23T03:21:06;13.70;99.90
52709;DHT22;38606;52.986;6.980;2023-05-23T03:23:32;13.50;99.90
52709;DHT22;38606;52.986;6.980;2023-05-23T03:25:58;13.70;99.90
52709;DHT22;38606;52.986;6.980;2023-05-23T03:28:24;13.40;99.90
52709;DHT22;38606;52.986;6.980;2023-05-23T03:30:50;13.50;99.90
52709;DHT22;38606;52.986;6.980;2023-05-23T03:33:15;13.40;99.90
52709;DHT22;38606;52.986;6.980;2023-05-23T03:35:41;13.50;99.90
52709;DHT22;38606;52.986;6.980;2023-05-23T03:38:07;13.30;99.90
52709;DHT22;38606;52.986;6.980;2023-05-23T03:40:33;13.50;99.90
52709;DHT22;38606;52.986;6.980;2023-05-23T03:43:05;13.30;99.90
52709;DHT22;38606;52.986;6.980;2023-05-23T03:45:32;13.30;99.90
52709;DHT22;38606;52.986;6.980;2023-05-23T03:47:58;13.20;99.90
52709;DHT22;38606;52.986;6.980;2023-05-23T03:50:24;13.10;99.90
52709;DHT22;38606;52.986;6.980;2023-05-23T03:52:50;13.20;99.90
52709;DHT22;38606;52.986;6.980;2023-05-23T03:55:15;13.00;99.90
52709;DHT22;38606;52.986;6.980;2023-05-23T03:57:41;12.90;99.90
52709;DHT22;38606;52.986;6.980;2023-05-23T04:00:07;13.10;99.90
52709;DHT22;38606;52.986;6.980;2023-05-23T04:02:37;12.80;99.90
52709;DHT22;38606;52.986;6.980;2023-05-23T04:05:05;13.00;99.90
52709;DHT22;38606;52.986;6.980;2023-05-23T04:07:31;12.90;99.90
52709;DHT22;38606;52.986;6.980;2023-05-23T04:09:59;12.80;99.90
52709;DHT22;38606;52.986;6.980;2023-05-23T04:12:25;13.00;99.90
52709;DHT22;38606;52.986;6.980;2023-05-23T04:14:51;13.00;99.90
52709;DHT22;38606;52.986;6.980;2023-05-23T04:17:17;12.80;99.90
52709;DHT22;38606;52.986;6.980;2023-05-23T04:19:43;12.60;99.90
52709;DHT22;38606;52.986;6.980;2023-05-23T04:22:09;12.70;99.90
52709;DHT22;38606;52.986;6.980;2023-05-23T04:24:35;12.80;99.90
52709;DHT22;38606;52.986;6.980;2023-05-23T04:27:01;12.40;99.90
52709;DHT22;38606;52.986;6.980;2023-05-23T04:29:27;12.60;99.90
52709;DHT22;38606;52.986;6.980;2023-05-23T04:31:56;12.50;99.90
52709;DHT22;38606;52.986;6.980;2023-05-23T04:34:22;12.40;99.90
52709;DHT22;38606;52.986;6.980;2023-05-23T04:36:48;12.70;99.90
52709;DHT22;38606;52.986;6.980;2023-05-23T04:39:14;12.50;99.90
52709;DHT22;38606;52.986;6.980;2023-05-23T04:41:41;12.30;99.90
52709;DHT22;38606;52.986;6.980;2023-05-23T04:44:06;12.50;99.90
52709;DHT22;38606;52.986;6.980;2023-05-23T04:46:34;12.60;99.90
52709;DHT22;38606;52.986;6.980;2023-05-23T04:49:01;13.60;99.90
52709;DHT22;38606;52.986;6.980;2023-05-23T04:51:27;12.50;99.90
52709;DHT22;38606;52.986;6.980;2023-05-23T04:53:53;12.60;99.90
52709;DHT22;38606;52.986;6.980;2023-05-23T04:56:18;12.50;99.90
52709;DHT22;38606;52.986;6.980;2023-05-23T04:58:53;12.60;99.90
52709;DHT22;38606;52.986;6.980;2023-05-23T05:01:19;12.50;99.90
52709;DHT22;38606;52.986;6.980;2023-05-23T05:03:45;12.30;99.90
52709;DHT22;38606;52.986;6.980;2023-05-23T05:06:12;12.40;99.90
52709;DHT22;38606;52.986;6.980;2023-05-23T05:08:38;12.60;99.90
52709;DHT22;38606;52.986;6.980;2023-05-23T05:11:05;12.20;99.90
52709;DHT22;38606;52.986;6.980;2023-05-23T05:13:31;14.40;99.90
52709;DHT22;38606;52.986;6.980;2023-05-23T05:15:57;12.50;99.90
52709;DHT22;38606;52.986;6.980;2023-05-23T05:18:25;12.40;99.90
52709;DHT22;38606;52.986;6.980;2023-05-23T05:20:51;12.40;99.90
52709;DHT22;38606;52.986;6.980;2023-05-23T05:23:17;12.50;99.90
52709;DHT22;38606;52.986;6.980;2023-05-23T05:25:42;12.50;99.90
52709;DHT22;38606;52.986;6.980;2023-05-23T05:28:08;12.60;99.90
52709;DHT22;38606;52.986;6.980;2023-05-23T05:30:34;12.40;99.90
52709;DHT22;38606;52.986;6.980;2023-05-23T05:33:01;12.50;99.90
52709;DHT22;38606;52.986;6.980;2023-05-23T05:35:34;12.60;99.90
52709;DHT22;38606;52.986;6.980;2023-05-23T05:38:03;12.60;99.90
52709;DHT22;38606;52.986;6.980;2023-05-23T05:40:32;12.50;99.90
52709;DHT22;38606;52.986;6.980;2023-05-23T05:42:58;12.60;99.90
52709;DHT22;38606;52.986;6.980;2023-05-23T05:45:24;12.50;99.90
52709;DHT22;38606;52.986;6.980;2023-05-23T05:47:50;12.40;99.90
52709;DHT22;38606;52.986;6.980;2023-05-23T05:50:16;12.50;99.90
52709;DHT22;38606;52.986;6.980;2023-05-23T05:52:42;12.50;99.90
52709;DHT22;38606;52.986;6.980;2023-05-23T05:55:09;12.60;99.90
52709;DHT22;38606;52.986;6.980;2023-05-23T05:57:41;12.40;99.90
52709;DHT22;38606;52.986;6.980;2023-05-23T06:00:09;12.50;99.90
52709;DHT22;38606;52.986;6.980;2023-05-23T06:02:42;12.50;99.90
52709;DHT22;38606;52.986;6.980;2023-05-23T06:05:11;12.60;99.90
52709;DHT22;38606;52.986;6.980;2023-05-23T06:07:37;12.50;99.90
52709;DHT22;38606;52.986;6.980;2023-05-23T06:10:04;12.20;99.90
52709;DHT22;38606;52.986;6.980;2023-05-23T06:12:29;12.30;99.90
52709;DHT22;38606;52.986;6.980;2023-05-23T06:14:55;12.30;99.90
52709;DHT22;38606;52.986;6.980;2023-05-23T06:17:21;12.40;99.90
52709;DHT22;38606;52.986;6.980;2023-05-23T06:19:47;12.10;99.90
52709;DHT22;38606;52.986;6.980;2023-05-23T06:22:13;12.10;99.90
52709;DHT22;38606;52.986;6.980;2023-05-23T06:24:38;12.10;99.90
52709;DHT22;38606;52.986;6.980;2023-05-23T06:27:04;12.00;99.90
52709;DHT22;38606;52.986;6.980;2023-05-23T06:29:30;12.00;99.90
52709;DHT22;38606;52.986;6.980;2023-05-23T06:31:56;12.20;99.90
52709;DHT22;38606;52.986;6.980;2023-05-23T06:34:22;12.10;99.90
52709;DHT22;38606;52.986;6.980;2023-05-23T06:36:48;12.00;99.90
52709;DHT22;38606;52.986;6.980;2023-05-23T06:39:14;12.00;99.90
52709;DHT22;38606;52.986;6.980;2023-05-23T06:41:41;12.10;99.90
52709;DHT22;38606;52.986;6.980;2023-05-23T06:44:07;11.90;99.90
52709;DHT22;38606;52.986;6.980;2023-05-23T06:46:33;12.00;99.90
52709;DHT22;38606;52.986;6.980;2023-05-23T06:48:59;12.00;99.90
52709;DHT22;38606;52.986;6.980;2023-05-23T06:51:24;12.00;99.90
52709;DHT22;38606;52.986;6.980;2023-05-23T06:53:50;12.30;99.90
52709;DHT22;38606;52.986;6.980;2023-05-23T06:56:16;12.10;99.90
52709;DHT22;38606;52.986;6.980;2023-05-23T06:58:42;12.20;99.90
52709;DHT22;38606;52.986;6.980;2023-05-23T07:01:07;12.10;99.90
52709;DHT22;38606;52.986;6.980;2023-05-23T07:03:35;12.10;99.90
52709;DHT22;38606;52.986;6.980;2023-05-23T07:06:03;12.20;99.90
52709;DHT22;38606;52.986;6.980;2023-05-23T07:08:28;12.20;99.90
52709;DHT22;38606;52.986;6.980;2023-05-23T07:10:54;12.30;99.90
52709;DHT22;38606;52.986;6.980;2023-05-23T07:13:20;12.10;99.90
52709;DHT22;38606;52.986;6.980;2023-05-23T07:15:45;12.30;99.90
52709;DHT22;38606;52.986;6.980;2023-05-23T07:18:11;12.30;99.90
52709;DHT22;38606;52.986;6.980;2023-05-23T07:20:38;12.20;99.90
52709;DHT22;38606;52.986;6.980;2023-05-23T07:23:03;12.10;99.90
52709;DHT22;38606;52.986;6.980;2023-05-23T07:25:29;12.30;99.90
52709;DHT22;38606;52.986;6.980;2023-05-23T07:27:55;12.40;99.90
52709;DHT22;38606;52.986;6.980;2023-05-23T07:30:21;12.40;99.90
52709;DHT22;38606;52.986;6.980;2023-05-23T07:32:47;12.50;99.90
52709;DHT22;38606;52.986;6.980;2023-05-23T07:35:14;12.60;99.90
52709;DHT22;38606;52.986;6.980;2023-05-23T07:37:41;12.80;99.90
52709;DHT22;38606;52.986;6.980;2023-05-23T07:40:07;12.80;99.90
52709;DHT22;38606;52.986;6.980;2023-05-23T07:42:36;12.70;99.90
52709;DHT22;38606;52.986;6.980;2023-05-23T07:45:03;12.80;99.90
52709;DHT22;38606;52.986;6.980;2023-05-23T07:47:29;13.10;99.90
52709;DHT22;38606;52.986;6.980;2023-05-23T07:49:54;13.10;99.90
52709;DHT22;38606;52.986;6.980;2023-05-23T07:52:21;13.10;99.90
52709;DHT22;38606;52.986;6.980;2023-05-23T07:54:46;13.10;99.90
52709;DHT22;38606;52.986;6.980;2023-05-23T07:57:12;13.20;99.90
52709;DHT22;38606;52.986;6.980;2023-05-23T07:59:40;13.30;99.90
52709;DHT22;38606;52.986;6.980;2023-05-23T08:02:06;12.90;99.90
52709;DHT22;38606;52.986;6.980;2023-05-23T08:04:31;13.30;99.90
52709;DHT22;38606;52.986;6.980;2023-05-23T08:06:58;13.30;99.90
52709;DHT22;38606;52.986;6.980;2023-05-23T08:09:25;12.00;99.90
52709;DHT22;38606;52.986;6.980;2023-05-23T08:11:51;12.80;99.90
52709;DHT22;38606;52.986;6.980;2023-05-23T08:14:17;13.00;99.90
52709;DHT22;38606;52.986;6.980;2023-05-23T08:16:43;13.10;99.90
52709;DHT22;38606;52.986;6.980;2023-05-23T08:19:09;13.10;99.90
52709;DHT22;38606;52.986;6.980;2023-05-23T08:21:35;13.10;99.90
52709;DHT22;38606;52.986;6.980;2023-05-23T08:24:01;13.20;99.90
52709;DHT22;38606;52.986;6.980;2023-05-23T08:26:26;13.20;99.90
52709;DHT22;38606;52.986;6.980;2023-05-23T08:28:59;13.30;99.90
52709;DHT22;38606;52.986;6.980;2023-05-23T08:31:27;13.40;99.90
52709;DHT22;38606;52.986;6.980;2023-05-23T08:33:53;13.40;99.90
52709;DHT22;38606;52.986;6.980;2023-05-23T08:36:19;13.60;99.90
52709;DHT22;38606;52.986;6.980;2023-05-23T08:38:44;13.70;99.90
52709;DHT22;38606;52.986;6.980;2023-05-23T08:41:17;13.70;99.90
52709;DHT22;38606;52.986;6.980;2023-05-23T08:43:43;13.60;99.90
52709;DHT22;38606;52.986;6.980;2023-05-23T08:46:10;13.80;99.90
52709;DHT22;38606;52.986;6.980;2023-05-23T08:48:37;14.10;99.90
52709;DHT22;38606;52.986;6.980;2023-05-23T08:51:03;14.00;99.90
52709;DHT22;38606;52.986;6.980;2023-05-23T08:53:30;14.20;99.90
52709;DHT22;38606;52.986;6.980;2023-05-23T08:55:58;14.60;99.90
52709;DHT22;38606;52.986;6.980;2023-05-23T08:58:30;14.30;99.90
52709;DHT22;38606;52.986;6.980;2023-05-23T09:00:58;14.70;99.90
52709;DHT22;38606;52.986;6.980;2023-05-23T09:03:27;14.40;99.90
52709;DHT22;38606;52.986;6.980;2023-05-23T09:05:53;14.50;99.90
52709;DHT22;38606;52.986;6.980;2023-05-23T09:08:20;14.20;99.90
52709;DHT22;38606;52.986;6.980;2023-05-23T09:10:47;14.10;99.90
52709;DHT22;38606;52.986;6.980;2023-05-23T09:13:17;14.30;99.90
52709;DHT22;38606;52.986;6.980;2023-05-23T09:18:26;14.40;99.90
52709;DHT22;38606;52.986;6.980;2023-05-23T09:20:52;14.20;99.90
52709;DHT22;38606;52.986;6.980;2023-05-23T09:23:18;14.70;99.90
52709;DHT22;38606;52.986;6.980;2023-05-23T09:25:48;14.70;99.90
52709;DHT22;38606;52.986;6.980;2023-05-23T09:28:13;14.60;99.90
52709;DHT22;38606;52.986;6.980;2023-05-23T09:30:39;14.40;99.90
52709;DHT22;38606;52.986;6.980;2023-05-23T09:33:05;14.60;99.90
52709;DHT22;38606;52.986;6.980;2023-05-23T09:35:31;14.40;99.90
52709;DHT22;38606;52.986;6.980;2023-05-23T09:37:57;14.60;99.90
52709;DHT22;38606;52.986;6.980;2023-05-23T09:40:32;14.70;99.90
52709;DHT22;38606;52.986;6.980;2023-05-23T09:43:02;14.70;99.90
52709;DHT22;38606;52.986;6.980;2023-05-23T09:45:30;14.90;99.90
52709;DHT22;38606;52.986;6.980;2023-05-23T09:47:55;14.80;99.90
52709;DHT22;38606;52.986;6.980;2023-05-23T09:50:22;15.10;99.90
52709;DHT22;38606;52.986;6.980;2023-05-23T09:52:48;15.00;99.90
52709;DHT22;38606;52.986;6.980;2023-05-23T09:55:15;15.30;99.90
52709;DHT22;38606;52.986;6.980;2023-05-23T09:57:42;15.10;99.90
52709;DHT22;38606;52.986;6.980;2023-05-23T10:00:09;15.30;99.90
52709;DHT22;38606;52.986;6.980;2023-05-23T10:05:40;15.30;99.90
52709;DHT22;38606;52.986;6.980;2023-05-23T10:08:26;15.10;99.90
52709;DHT22;38606;52.986;6.980;2023-05-23T10:13:24;15.10;99.90
52709;DHT22;38606;52.986;6.980;2023-05-23T10:16:06;15.10;99.90
52709;DHT22;38606;52.986;6.980;2023-05-23T10:18:37;15.50;99.90
52709;DHT22;38606;52.986;6.980;2023-05-23T10:21:11;15.30;99.90
52709;DHT22;38606;52.986;6.980;2023-05-23T10:23:37;15.50;99.90
52709;DHT22;38606;52.986;6.980;2023-05-23T10:26:04;15.40;99.90
52709;DHT22;38606;52.986;6.980;2023-05-23T10:28:30;15.30;99.90
52709;DHT22;38606;52.986;6.980;2023-05-23T10:30:58;15.40;99.90
52709;DHT22;38606;52.986;6.980;2023-05-23T10:33:26;15.50;99.90
52709;DHT22;38606;52.986;6.980;2023-05-23T10:41:30;15.70;99.90
52709;DHT22;38606;52.986;6.980;2023-05-23T10:44:25;15.50;99.90
52709;DHT22;38606;52.986;6.980;2023-05-23T10:46:55;15.90;99.90
52709;DHT22;38606;52.986;6.980;2023-05-23T10:49:53;15.70;99.90
52709;DHT22;38606;52.986;6.980;2023-05-23T10:52:19;15.60;99.90
52709;DHT22;38606;52.986;6.980;2023-05-23T10:54:50;15.60;99.90
52709;DHT22;38606;52.986;6.980;2023-05-23T10:57:18;15.40;99.90
52709;DHT22;38606;52.986;6.980;2023-05-23T10:59:45;15.50;99.90
52709;DHT22;38606;52.986;6.980;2023-05-23T11:02:15;15.50;99.90
52709;DHT22;38606;52.986;6.980;2023-05-23T11:04:43;17.80;99.90
52709;DHT22;38606;52.986;6.980;2023-05-23T11:07:29;15.60;99.90
52709;DHT22;38606;52.986;6.980;2023-05-23T11:10:11;15.70;99.90
52709;DHT22;38606;52.986;6.980;2023-05-23T11:12:43;15.60;99.90
52709;DHT22;38606;52.986;6.980;2023-05-23T11:15:21;15.80;99.90
52709;DHT22;38606;52.986;6.980;2023-05-23T11:17:55;15.50;99.90
52709;DHT22;38606;52.986;6.980;2023-05-23T11:20:23;15.80;99.90
52709;DHT22;38606;52.986;6.980;2023-05-23T11:22:58;15.50;99.90
52709;DHT22;38606;52.986;6.980;2023-05-23T11:28:12;15.70;99.90
52709;DHT22;38606;52.986;6.980;2023-05-23T11:30:38;15.60;99.90
52709;DHT22;38606;52.986;6.980;2023-05-23T11:33:06;15.50;99.90
52709;DHT22;38606;52.986;6.980;2023-05-23T11:35:34;15.80;99.90
52709;DHT22;38606;52.986;6.980;2023-05-23T11:38:03;15.40;99.90
52709;DHT22;38606;52.986;6.980;2023-05-23T11:40:37;15.40;99.90
52709;DHT22;38606;52.986;6.980;2023-05-23T11:43:06;15.40;99.90
52709;DHT22;38606;52.986;6.980;2023-05-23T11:45:33;15.70;99.90
52709;DHT22;38606;52.986;6.980;2023-05-23T11:48:04;16.20;99.90
52709;DHT22;38606;52.986;6.980;2023-05-23T11:50:31;16.00;99.90
52709;DHT22;38606;52.986;6.980;2023-05-23T11:52:56;16.00;99.90
52709;DHT22;38606;52.986;6.980;2023-05-23T11:55:22;16.00;99.90
52709;DHT22;38606;52.986;6.980;2023-05-23T11:57:48;16.00;99.90
52709;DHT22;38606;52.986;6.980;2023-05-23T12:00:15;16.10;99.90
52709;DHT22;38606;52.986;6.980;2023-05-23T12:02:42;15.90;99.90
52709;DHT22;38606;52.986;6.980;2023-05-23T12:05:12;15.90;99.90
52709;DHT22;38606;52.986;6.980;2023-05-23T12:07:46;16.10;99.90
52709;DHT22;38606;52.986;6.980;2023-05-23T12:10:16;16.20;99.90
52709;DHT22;38606;52.986;6.980;2023-05-23T12:12:43;16.00;99.90
52709;DHT22;38606;52.986;6.980;2023-05-23T12:15:10;16.20;99.90
52709;DHT22;38606;52.986;6.980;2023-05-23T12:17:37;15.90;99.90
52709;DHT22;38606;52.986;6.980;2023-05-23T12:20:04;15.70;99.90
52709;DHT22;38606;52.986;6.980;2023-05-23T12:22:31;15.90;99.90
52709;DHT22;38606;52.986;6.980;2023-05-23T12:24:57;16.10;99.90
52709;DHT22;38606;52.986;6.980;2023-05-23T12:27:34;15.90;99.90
52709;DHT22;38606;52.986;6.980;2023-05-23T12:30:08;16.00;99.90
52709;DHT22;38606;52.986;6.980;2023-05-23T12:32:41;16.00;99.90
52709;DHT22;38606;52.986;6.980;2023-05-23T12:35:07;16.00;99.90
52709;DHT22;38606;52.986;6.980;2023-05-23T12:37:33;16.00;99.90
52709;DHT22;38606;52.986;6.980;2023-05-23T12:40:14;16.20;99.90
52709;DHT22;38606;52.986;6.980;2023-05-23T12:42:58;16.00;99.90
52709;DHT22;38606;52.986;6.980;2023-05-23T12:45:35;16.00;99.90
52709;DHT22;38606;52.986;6.980;2023-05-23T12:48:04;16.10;99.90
52709;DHT22;38606;52.986;6.980;2023-05-23T12:50:31;16.20;99.90
52709;DHT22;38606;52.986;6.980;2023-05-23T12:52:57;16.20;99.90
52709;DHT22;38606;52.986;6.980;2023-05-23T12:55:23;16.00;99.90
52709;DHT22;38606;52.986;6.980;2023-05-23T12:57:49;16.00;99.90
52709;DHT22;38606;52.986;6.980;2023-05-23T13:00:16;15.80;99.90
52709;DHT22;38606;52.986;6.980;2023-05-23T13:02:42;15.70;99.90
52709;DHT22;38606;52.986;6.980;2023-05-23T13:05:07;15.70;99.90
52709;DHT22;38606;52.986;6.980;2023-05-23T13:07:34;15.50;99.90
52709;DHT22;38606;52.986;6.980;2023-05-23T13:10:00;15.70;99.90
52709;DHT22;38606;52.986;6.980;2023-05-23T13:12:27;14.40;99.90
52709;DHT22;38606;52.986;6.980;2023-05-23T13:14:53;15.60;99.90
52709;DHT22;38606;52.986;6.980;2023-05-23T13:17:19;15.60;99.90
52709;DHT22;38606;52.986;6.980;2023-05-23T13:19:45;15.50;99.90
52709;DHT22;38606;52.986;6.980;2023-05-23T13:22:11;17.00;99.90
52709;DHT22;38606;52.986;6.980;2023-05-23T13:24:38;15.60;99.90
52709;DHT22;38606;52.986;6.980;2023-05-23T13:27:05;15.90;99.90
52709;DHT22;38606;52.986;6.980;2023-05-23T13:29:32;18.10;99.90
52709;DHT22;38606;52.986;6.980;2023-05-23T13:31:58;15.70;99.90
52709;DHT22;38606;52.986;6.980;2023-05-23T13:34:24;15.70;99.90
52709;DHT22;38606;52.986;6.980;2023-05-23T13:36:51;15.80;99.90
52709;DHT22;38606;52.986;6.980;2023-05-23T13:39:17;15.70;99.90
52709;DHT22;38606;52.986;6.980;2023-05-23T13:41:45;15.60;99.90
52709;DHT22;38606;52.986;6.980;2023-05-23T13:44:11;15.80;99.90
52709;DHT22;38606;52.986;6.980;2023-05-23T13:46:37;15.70;99.90
52709;DHT22;38606;52.986;6.980;2023-05-23T13:49:03;15.90;99.90
52709;DHT22;38606;52.986;6.980;2023-05-23T13:51:28;15.70;99.90
52709;DHT22;38606;52.986;6.980;2023-05-23T13:53:54;15.70;99.90
52709;DHT22;38606;52.986;6.980;2023-05-23T13:56:21;16.00;99.90
52709;DHT22;38606;52.986;6.980;2023-05-23T13:58:48;15.70;99.90
52709;DHT22;38606;52.986;6.980;2023-05-23T14:01:14;14.30;99.90
52709;DHT22;38606;52.986;6.980;2023-05-23T14:03:40;15.60;99.90
52709;DHT22;38606;52.986;6.980;2023-05-23T14:06:05;15.70;99.90
52709;DHT22;38606;52.986;6.980;2023-05-23T14:08:32;15.60;99.90
52709;DHT22;38606;52.986;6.980;2023-05-23T14:10:57;15.50;99.90
52709;DHT22;38606;52.986;6.980;2023-05-23T14:13:23;15.90;99.90
52709;DHT22;38606;52.986;6.980;2023-05-23T14:15:50;16.00;99.90
52709;DHT22;38606;52.986;6.980;2023-05-23T14:18:16;15.90;99.90
52709;DHT22;38606;52.986;6.980;2023-05-23T14:20:42;16.30;99.90
52709;DHT22;38606;52.986;6.980;2023-05-23T14:23:07;16.00;99.90
52709;DHT22;38606;52.986;6.980;2023-05-23T14:25:33;16.00;99.90
52709;DHT22;38606;52.986;6.980;2023-05-23T14:27:59;16.10;99.90
52709;DHT22;38606;52.986;6.980;2023-05-23T14:30:24;16.20;99.90
52709;DHT22;38606;52.986;6.980;2023-05-23T14:32:50;16.20;99.90
52709;DHT22;38606;52.986;6.980;2023-05-23T14:35:16;16.00;99.90
52709;DHT22;38606;52.986;6.980;2023-05-23T14:37:43;16.40;99.90
52709;DHT22;38606;52.986;6.980;2023-05-23T14:40:09;16.20;99.90
52709;DHT22;38606;52.986;6.980;2023-05-23T14:42:35;16.40;99.90
52709;DHT22;38606;52.986;6.980;2023-05-23T14:45:01;16.50;99.90
52709;DHT22;38606;52.986;6.980;2023-05-23T14:47:27;16.50;99.90
52709;DHT22;38606;52.986;6.980;2023-05-23T14:49:52;16.50;99.90
52709;DHT22;38606;52.986;6.980;2023-05-23T14:52:18;16.80;99.90
52709;DHT22;38606;52.986;6.980;2023-05-23T14:54:44;16.70;99.90
52709;DHT22;38606;52.986;6.980;2023-05-23T14:57:09;16.50;99.90
52709;DHT22;38606;52.986;6.980;2023-05-23T14:59:35;16.50;99.90
52709;DHT22;38606;52.986;6.980;2023-05-23T15:02:02;16.10;99.90
52709;DHT22;38606;52.986;6.980;2023-05-23T15:04:29;16.10;99.90
52709;DHT22;38606;52.986;6.980;2023-05-23T15:06:55;16.10;99.90
52709;DHT22;38606;52.986;6.980;2023-05-23T15:09:20;16.00;99.90
52709;DHT22;38606;52.986;6.980;2023-05-23T15:11:47;16.00;99.90
52709;DHT22;38606;52.986;6.980;2023-05-23T15:14:17;15.90;99.90
52709;DHT22;38606;52.986;6.980;2023-05-23T15:16:44;16.00;99.60
52709;DHT22;38606;52.986;6.980;2023-05-23T15:19:10;15.60;99.70
52709;DHT22;38606;52.986;6.980;2023-05-23T15:21:36;15.50;99.90
52709;DHT22;38606;52.986;6.980;2023-05-23T15:24:02;15.60;99.90
52709;DHT22;38606;52.986;6.980;2023-05-23T15:26:28;15.70;99.90
52709;DHT22;38606;52.986;6.980;2023-05-23T15:28:54;15.60;99.90
52709;DHT22;38606;52.986;6.980;2023-05-23T15:31:20;15.50;99.90
52709;DHT22;38606;52.986;6.980;2023-05-23T15:33:46;15.30;99.90
52709;DHT22;38606;52.986;6.980;2023-05-23T15:36:15;15.00;99.90
52709;DHT22;38606;52.986;6.980;2023-05-23T15:38:41;15.40;99.90
52709;DHT22;38606;52.986;6.980;2023-05-23T15:41:06;15.20;99.90
52709;DHT22;38606;52.986;6.980;2023-05-23T15:43:33;15.00;99.70
52709;DHT22;38606;52.986;6.980;2023-05-23T15:46:03;15.00;99.60
52709;DHT22;38606;52.986;6.980;2023-05-23T15:48:29;14.90;99.60
52709;DHT22;38606;52.986;6.980;2023-05-23T15:50:55;14.80;99.30
52709;DHT22;38606;52.986;6.980;2023-05-23T15:53:21;14.90;99.90
52709;DHT22;38606;52.986;6.980;2023-05-23T15:55:46;14.90;99.90